sensor_id;sensor_type;location;lat;lon;timestamp;temperature;humidity
16666;DHT22;8446;50.998;6.250;2023-05-10T00:00:11;13.00;99.90
16666;DHT22;8446;50.998;6.250;2023-05-10T00:02:38;13.00;99.90
16666;DHT22;8446;50.998;6.250;2023-05-10T00:05:06;13.00;99.90
16666;DHT22;8446;50.998;6.250;2023-05-10T00:07:33;13.00;99.90
16666;DHT22;8446;50.998;6.250;2023-05-10T00:10:00;13.00;99.90
16666;DHT22;8446;50.998;6.250;2023-05-10T00:12:27;13.00;99.90
16666;DHT22;8446;50.998;6.250;2023-05-10T00:14:55;13.00;99.90
16666;DHT22;8446;50.998;6.250;2023-05-10T00:17:21;13.00;99.90
16666;DHT22;8446;50.998;6.250;2023-05-10T00:19:48;13.00;99.90
16666;DHT22;8446;50.998;6.250;2023-05-10T00:22:15;13.00;99.90
16666;DHT22;8446;50.998;6.250;2023-05-10T00:24:42;13.00;99.90
16666;DHT22;8446;50.998;6.250;2023-05-10T00:27:08;13.00;99.90
16666;DHT22;8446;50.998;6.250;2023-05-10T00:29:35;13.00;99.90
16666;DHT22;8446;50.998;6.250;2023-05-10T00:32:04;13.00;99.90
16666;DHT22;8446;50.998;6.250;2023-05-10T00:34:31;13.00;99.90
16666;DHT22;8446;50.998;6.250;2023-05-10T00:36:58;13.00;99.90
16666;DHT22;8446;50.998;6.250;2023-05-10T00:39:25;13.00;99.90
16666;DHT22;8446;50.998;6.250;2023-05-10T00:41:52;13.00;99.90
16666;DHT22;8446;50.998;6.250;2023-05-10T00:44:19;13.00;99.90
16666;DHT22;8446;50.998;6.250;2023-05-10T00:46:46;13.00;99.90
16666;DHT22;8446;50.998;6.250;2023-05-10T00:49:14;13.00;99.90
16666;DHT22;8446;50.998;6.250;2023-05-10T00:51:42;13.00;99.90
16666;DHT22;8446;50.998;6.250;2023-05-10T00:54:11;13.00;99.90
16666;DHT22;8446;50.998;6.250;2023-05-10T00:56:38;13.00;99.90
16666;DHT22;8446;50.998;6.250;2023-05-10T00:59:05;13.00;99.90
16666;DHT22;8446;50.998;6.250;2023-05-10T01:01:32;13.00;99.90
16666;DHT22;8446;50.998;6.250;2023-05-10T01:03:59;13.00;99.90
16666;DHT22;8446;50.998;6.250;2023-05-10T01:06:28;13.00;99.90
16666;DHT22;8446;50.998;6.250;2023-05-10T01:08:55;13.10;99.90
16666;DHT22;8446;50.998;6.250;2023-05-10T01:11:22;13.10;99.90
16666;DHT22;8446;50.998;6.250;2023-05-10T01:13:52;13.00;99.90
16666;DHT22;8446;50.998;6.250;2023-05-10T01:16:20;13.00;99.90
16666;DHT22;8446;50.998;6.250;2023-05-10T01:18:48;13.00;99.90
16666;DHT22;8446;50.998;6.250;2023-05-10T01:21:20;12.90;99.90
16666;DHT22;8446;50.998;6.250;2023-05-10T01:24:12;12.90;99.90
16666;DHT22;8446;50.998;6.250;2023-05-10T01:27:14;12.90;99.90
16666;DHT22;8446;50.998;6.250;2023-05-10T01:33:11;12.80;99.90
16666;DHT22;8446;50.998;6.250;2023-05-10T01:35:47;12.70;99.90
16666;DHT22;8446;50.998;6.250;2023-05-10T01:38:25;12.70;99.90
16666;DHT22;8446;50.998;6.250;2023-05-10T01:41:03;12.70;99.90
16666;DHT22;8446;50.998;6.250;2023-05-10T01:43:37;12.70;99.90
16666;DHT22;8446;50.998;6.250;2023-05-10T01:46:13;12.70;99.90
16666;DHT22;8446;50.998;6.250;2023-05-10T01:48:47;12.70;99.90
16666;DHT22;8446;50.998;6.250;2023-05-10T01:51:19;12.70;99.90
16666;DHT22;8446;50.998;6.250;2023-05-10T01:53:48;12.70;99.90
16666;DHT22;8446;50.998;6.250;2023-05-10T01:56:19;12.80;99.90
16666;DHT22;8446;50.998;6.250;2023-05-10T01:58:48;12.80;99.90
16666;DHT22;8446;50.998;6.250;2023-05-10T02:01:16;12.80;99.90
16666;DHT22;8446;50.998;6.250;2023-05-10T02:03:46;12.80;99.90
16666;DHT22;8446;50.998;6.250;2023-05-10T02:06:14;12.80;99.90
16666;DHT22;8446;50.998;6.250;2023-05-10T02:08:43;12.80;99.90
16666;DHT22;8446;50.998;6.250;2023-05-10T02:11:13;12.80;99.90
16666;DHT22;8446;50.998;6.250;2023-05-10T02:13:42;12.80;99.90
16666;DHT22;8446;50.998;6.250;2023-05-10T02:16:11;12.90;99.90
16666;DHT22;8446;50.998;6.250;2023-05-10T02:18:40;12.90;99.90
16666;DHT22;8446;50.998;6.250;2023-05-10T02:21:09;12.90;99.90
16666;DHT22;8446;50.998;6.250;2023-05-10T02:23:37;12.90;99.90
16666;DHT22;8446;50.998;6.250;2023-05-10T02:26:05;12.90;99.90
16666;DHT22;8446;50.998;6.250;2023-05-10T02:28:33;12.90;99.90
16666;DHT22;8446;50.998;6.250;2023-05-10T02:31:03;12.90;99.90
16666;DHT22;8446;50.998;6.250;2023-05-10T02:33:31;12.90;99.90
16666;DHT22;8446;50.998;6.250;2023-05-10T02:35:59;12.90;99.90
16666;DHT22;8446;50.998;6.250;2023-05-10T02:38:28;13.00;99.90
16666;DHT22;8446;50.998;6.250;2023-05-10T02:40:57;13.00;99.90
16666;DHT22;8446;50.998;6.250;2023-05-10T02:43:24;12.90;99.90
16666;DHT22;8446;50.998;6.250;2023-05-10T02:45:52;13.00;99.90
16666;DHT22;8446;50.998;6.250;2023-05-10T02:48:19;13.00;99.90
16666;DHT22;8446;50.998;6.250;2023-05-10T02:50:46;13.00;99.90
16666;DHT22;8446;50.998;6.250;2023-05-10T02:53:20;13.00;99.90
16666;DHT22;8446;50.998;6.250;2023-05-10T02:55:51;12.90;99.90
16666;DHT22;8446;50.998;6.250;2023-05-10T02:58:18;12.90;99.90
16666;DHT22;8446;50.998;6.250;2023-05-10T03:00:46;12.90;99.90
16666;DHT22;8446;50.998;6.250;2023-05-10T03:03:13;12.90;99.90
16666;DHT22;8446;50.998;6.250;2023-05-10T03:05:40;12.90;99.90
16666;DHT22;8446;50.998;6.250;2023-05-10T03:08:07;12.80;99.90
16666;DHT22;8446;50.998;6.250;2023-05-10T03:10:40;12.80;99.90
16666;DHT22;8446;50.998;6.250;2023-05-10T03:13:15;12.80;99.90
16666;DHT22;8446;50.998;6.250;2023-05-10T03:15:50;12.70;99.90
16666;DHT22;8446;50.998;6.250;2023-05-10T03:18:22;12.70;99.90
16666;DHT22;8446;50.998;6.250;2023-05-10T03:20:50;12.70;99.90
16666;DHT22;8446;50.998;6.250;2023-05-10T03:23:22;12.70;99.90
16666;DHT22;8446;50.998;6.250;2023-05-10T03:25:51;12.60;99.90
16666;DHT22;8446;50.998;6.250;2023-05-10T03:28:21;12.60;99.90
16666;DHT22;8446;50.998;6.250;2023-05-10T03:30:48;12.60;99.90
16666;DHT22;8446;50.998;6.250;2023-05-10T03:33:16;12.60;99.90
16666;DHT22;8446;50.998;6.250;2023-05-10T03:35:42;12.50;99.90
16666;DHT22;8446;50.998;6.250;2023-05-10T03:38:11;12.50;99.90
16666;DHT22;8446;50.998;6.250;2023-05-10T03:40:38;12.50;99.90
16666;DHT22;8446;50.998;6.250;2023-05-10T03:43:05;12.50;99.90
16666;DHT22;8446;50.998;6.250;2023-05-10T03:45:33;12.50;99.90
16666;DHT22;8446;50.998;6.250;2023-05-10T03:48:00;12.50;99.90
16666;DHT22;8446;50.998;6.250;2023-05-10T03:50:27;12.50;99.90
16666;DHT22;8446;50.998;6.250;2023-05-10T03:52:54;12.50;99.90
16666;DHT22;8446;50.998;6.250;2023-05-10T03:55:20;12.50;99.90
16666;DHT22;8446;50.998;6.250;2023-05-10T03:57:47;12.60;99.90
16666;DHT22;8446;50.998;6.250;2023-05-10T04:00:15;12.60;99.90
16666;DHT22;8446;50.998;6.250;2023-05-10T04:02:43;12.50;99.90
16666;DHT22;8446;50.998;6.250;2023-05-10T04:05:10;12.60;99.90
16666;DHT22;8446;50.998;6.250;2023-05-10T04:07:38;12.60;99.90
16666;DHT22;8446;50.998;6.250;2023-05-10T04:10:05;12.50;99.90
16666;DHT22;8446;50.998;6.250;2023-05-10T04:12:32;12.50;99.90
16666;DHT22;8446;50.998;6.250;2023-05-10T04:14:59;12.50;99.90
16666;DHT22;8446;50.998;6.250;2023-05-10T04:17:25;12.50;99.90
16666;DHT22;8446;50.998;6.250;2023-05-10T04:19:54;12.50;99.90
16666;DHT22;8446;50.998;6.250;2023-05-10T04:22:22;12.60;99.90
16666;DHT22;8446;50.998;6.250;2023-05-10T04:24:49;12.60;99.90
16666;DHT22;8446;50.998;6.250;2023-05-10T04:27:16;12.50;99.90
16666;DHT22;8446;50.998;6.250;2023-05-10T04:29:42;12.60;99.90
16666;DHT22;8446;50.998;6.250;2023-05-10T04:32:09;12.60;99.90
16666;DHT22;8446;50.998;6.250;2023-05-10T04:34:36;12.60;99.90
16666;DHT22;8446;50.998;6.250;2023-05-10T04:37:04;12.50;99.90
16666;DHT22;8446;50.998;6.250;2023-05-10T04:39:32;12.50;99.90
16666;DHT22;8446;50.998;6.250;2023-05-10T04:42:00;12.50;99.90
16666;DHT22;8446;50.998;6.250;2023-05-10T04:44:28;12.50;99.90
16666;DHT22;8446;50.998;6.250;2023-05-10T04:46:55;12.50;99.90
16666;DHT22;8446;50.998;6.250;2023-05-10T04:49:21;12.50;99.90
16666;DHT22;8446;50.998;6.250;2023-05-10T04:51:48;12.50;99.90
16666;DHT22;8446;50.998;6.250;2023-05-10T04:54:16;12.50;99.90
16666;DHT22;8446;50.998;6.250;2023-05-10T04:56:43;12.50;99.90
16666;DHT22;8446;50.998;6.250;2023-05-10T04:59:10;12.50;99.90
16666;DHT22;8446;50.998;6.250;2023-05-10T05:01:37;12.50;99.90
16666;DHT22;8446;50.998;6.250;2023-05-10T05:04:04;12.50;99.90
16666;DHT22;8446;50.998;6.250;2023-05-10T05:06:30;12.50;99.90
16666;DHT22;8446;50.998;6.250;2023-05-10T05:08:57;12.50;99.90
16666;DHT22;8446;50.998;6.250;2023-05-10T05:11:26;12.60;99.90
16666;DHT22;8446;50.998;6.250;2023-05-10T05:13:52;12.50;99.90
16666;DHT22;8446;50.998;6.250;2023-05-10T05:16:19;12.60;99.90
16666;DHT22;8446;50.998;6.250;2023-05-10T05:18:46;12.60;99.90
16666;DHT22;8446;50.998;6.250;2023-05-10T05:21:14;12.60;99.90
16666;DHT22;8446;50.998;6.250;2023-05-10T05:23:41;12.60;99.90
16666;DHT22;8446;50.998;6.250;2023-05-10T05:26:08;12.60;99.90
16666;DHT22;8446;50.998;6.250;2023-05-10T05:28:37;12.60;99.90
16666;DHT22;8446;50.998;6.250;2023-05-10T05:31:05;12.60;99.90
16666;DHT22;8446;50.998;6.250;2023-05-10T05:33:32;12.60;99.90
16666;DHT22;8446;50.998;6.250;2023-05-10T05:36:00;12.60;99.90
16666;DHT22;8446;50.998;6.250;2023-05-10T05:38:27;12.60;99.90
16666;DHT22;8446;50.998;6.250;2023-05-10T05:40:54;12.70;99.90
16666;DHT22;8446;50.998;6.250;2023-05-10T05:43:21;12.70;99.90
16666;DHT22;8446;50.998;6.250;2023-05-10T05:45:49;12.70;99.90
16666;DHT22;8446;50.998;6.250;2023-05-10T05:48:16;12.70;99.90
16666;DHT22;8446;50.998;6.250;2023-05-10T05:50:42;12.70;99.90
16666;DHT22;8446;50.998;6.250;2023-05-10T05:53:09;12.70;99.90
16666;DHT22;8446;50.998;6.250;2023-05-10T05:55:36;12.70;99.90
16666;DHT22;8446;50.998;6.250;2023-05-10T05:58:03;12.70;99.90
16666;DHT22;8446;50.998;6.250;2023-05-10T06:00:30;12.80;99.90
16666;DHT22;8446;50.998;6.250;2023-05-10T06:02:58;12.80;99.90
16666;DHT22;8446;50.998;6.250;2023-05-10T06:05:24;12.80;99.90
16666;DHT22;8446;50.998;6.250;2023-05-10T06:07:51;12.80;99.90
16666;DHT22;8446;50.998;6.250;2023-05-10T06:10:18;12.80;99.90
16666;DHT22;8446;50.998;6.250;2023-05-10T06:12:45;12.90;99.90
16666;DHT22;8446;50.998;6.250;2023-05-10T06:15:12;12.80;99.90
16666;DHT22;8446;50.998;6.250;2023-05-10T06:17:38;12.90;99.90
16666;DHT22;8446;50.998;6.250;2023-05-10T06:20:08;12.90;99.90
16666;DHT22;8446;50.998;6.250;2023-05-10T06:22:35;12.80;99.90
16666;DHT22;8446;50.998;6.250;2023-05-10T06:25:02;12.70;99.90
16666;DHT22;8446;50.998;6.250;2023-05-10T06:27:28;12.80;99.90
16666;DHT22;8446;50.998;6.250;2023-05-10T06:29:55;12.80;99.90
16666;DHT22;8446;50.998;6.250;2023-05-10T06:32:22;12.80;99.90
16666;DHT22;8446;50.998;6.250;2023-05-10T06:34:49;12.80;99.90
16666;DHT22;8446;50.998;6.250;2023-05-10T06:37:17;12.80;99.90
16666;DHT22;8446;50.998;6.250;2023-05-10T06:39:44;12.70;99.90
16666;DHT22;8446;50.998;6.250;2023-05-10T06:42:11;12.80;99.90
16666;DHT22;8446;50.998;6.250;2023-05-10T06:44:38;12.80;99.90
16666;DHT22;8446;50.998;6.250;2023-05-10T06:47:05;12.80;99.90
16666;DHT22;8446;50.998;6.250;2023-05-10T06:49:31;12.90;99.90
16666;DHT22;8446;50.998;6.250;2023-05-10T06:51:58;12.90;99.90
16666;DHT22;8446;50.998;6.250;2023-05-10T06:54:26;12.90;99.90
16666;DHT22;8446;50.998;6.250;2023-05-10T06:56:53;13.00;99.90
16666;DHT22;8446;50.998;6.250;2023-05-10T06:59:20;13.10;99.90
16666;DHT22;8446;50.998;6.250;2023-05-10T07:01:47;13.20;99.90
16666;DHT22;8446;50.998;6.250;2023-05-10T07:04:13;13.20;99.90
16666;DHT22;8446;50.998;6.250;2023-05-10T07:06:40;13.30;99.90
16666;DHT22;8446;50.998;6.250;2023-05-10T07:09:07;13.30;99.90
16666;DHT22;8446;50.998;6.250;2023-05-10T07:11:35;13.40;99.90
16666;DHT22;8446;50.998;6.250;2023-05-10T07:14:02;13.30;99.90
16666;DHT22;8446;50.998;6.250;2023-05-10T07:16:29;13.20;99.90
16666;DHT22;8446;50.998;6.250;2023-05-10T07:18:56;13.20;99.90
16666;DHT22;8446;50.998;6.250;2023-05-10T07:21:23;13.20;99.90
16666;DHT22;8446;50.998;6.250;2023-05-10T07:23:50;13.10;99.90
16666;DHT22;8446;50.998;6.250;2023-05-10T07:26:17;13.10;99.90
16666;DHT22;8446;50.998;6.250;2023-05-10T07:28:46;13.10;99.90
16666;DHT22;8446;50.998;6.250;2023-05-10T07:31:13;13.10;99.90
16666;DHT22;8446;50.998;6.250;2023-05-10T07:33:40;13.00;99.90
16666;DHT22;8446;50.998;6.250;2023-05-10T07:36:06;13.00;99.90
16666;DHT22;8446;50.998;6.250;2023-05-10T07:38:33;13.00;99.90
16666;DHT22;8446;50.998;6.250;2023-05-10T07:41:00;13.00;99.90
16666;DHT22;8446;50.998;6.250;2023-05-10T07:43:27;13.00;99.90
16666;DHT22;8446;50.998;6.250;2023-05-10T07:45:55;13.00;99.90
16666;DHT22;8446;50.998;6.250;2023-05-10T07:48:22;13.00;99.90
16666;DHT22;8446;50.998;6.250;2023-05-10T07:50:49;13.00;99.90
16666;DHT22;8446;50.998;6.250;2023-05-10T07:53:16;13.00;99.90
16666;DHT22;8446;50.998;6.250;2023-05-10T07:55:44;13.00;99.90
16666;DHT22;8446;50.998;6.250;2023-05-10T07:58:16;13.00;99.90
16666;DHT22;8446;50.998;6.250;2023-05-10T08:00:43;12.90;99.90
16666;DHT22;8446;50.998;6.250;2023-05-10T08:03:11;12.90;99.90
16666;DHT22;8446;50.998;6.250;2023-05-10T08:05:37;12.90;99.90
16666;DHT22;8446;50.998;6.250;2023-05-10T08:08:04;12.90;99.90
16666;DHT22;8446;50.998;6.250;2023-05-10T08:10:31;12.90;99.90
16666;DHT22;8446;50.998;6.250;2023-05-10T08:12:58;12.90;99.90
16666;DHT22;8446;50.998;6.250;2023-05-10T08:15:25;13.00;99.90
16666;DHT22;8446;50.998;6.250;2023-05-10T08:17:52;13.10;99.90
16666;DHT22;8446;50.998;6.250;2023-05-10T08:20:20;13.10;99.90
16666;DHT22;8446;50.998;6.250;2023-05-10T08:22:47;13.20;99.90
16666;DHT22;8446;50.998;6.250;2023-05-10T08:25:15;13.10;99.90
16666;DHT22;8446;50.998;6.250;2023-05-10T08:27:42;13.20;99.90
16666;DHT22;8446;50.998;6.250;2023-05-10T08:30:09;13.20;99.90
16666;DHT22;8446;50.998;6.250;2023-05-10T08:32:36;13.20;99.90
16666;DHT22;8446;50.998;6.250;2023-05-10T08:35:04;13.20;99.90
16666;DHT22;8446;50.998;6.250;2023-05-10T08:37:32;13.10;99.90
16666;DHT22;8446;50.998;6.250;2023-05-10T08:39:59;13.10;99.90
16666;DHT22;8446;50.998;6.250;2023-05-10T08:42:29;13.20;99.90
16666;DHT22;8446;50.998;6.250;2023-05-10T08:44:57;13.30;99.90
16666;DHT22;8446;50.998;6.250;2023-05-10T08:47:24;13.30;99.90
16666;DHT22;8446;50.998;6.250;2023-05-10T08:49:52;13.30;99.90
16666;DHT22;8446;50.998;6.250;2023-05-10T08:52:19;13.50;99.90
16666;DHT22;8446;50.998;6.250;2023-05-10T08:54:48;13.50;99.90
16666;DHT22;8446;50.998;6.250;2023-05-10T08:57:15;13.60;99.90
16666;DHT22;8446;50.998;6.250;2023-05-10T08:59:42;13.70;99.90
16666;DHT22;8446;50.998;6.250;2023-05-10T09:02:11;13.80;99.90
16666;DHT22;8446;50.998;6.250;2023-05-10T09:04:39;13.70;99.90
16666;DHT22;8446;50.998;6.250;2023-05-10T09:07:06;13.80;99.90
16666;DHT22;8446;50.998;6.250;2023-05-10T09:09:33;13.90;99.90
16666;DHT22;8446;50.998;6.250;2023-05-10T09:12:03;13.90;99.90
16666;DHT22;8446;50.998;6.250;2023-05-10T09:14:30;14.00;99.90
16666;DHT22;8446;50.998;6.250;2023-05-10T09:17:00;14.00;99.90
16666;DHT22;8446;50.998;6.250;2023-05-10T09:19:28;13.90;99.90
16666;DHT22;8446;50.998;6.250;2023-05-10T09:21:54;13.90;99.90
16666;DHT22;8446;50.998;6.250;2023-05-10T09:24:25;14.10;99.90
16666;DHT22;8446;50.998;6.250;2023-05-10T09:26:52;14.00;99.90
16666;DHT22;8446;50.998;6.250;2023-05-10T09:29:20;14.00;99.90
16666;DHT22;8446;50.998;6.250;2023-05-10T09:31:48;13.90;99.90
16666;DHT22;8446;50.998;6.250;2023-05-10T09:34:17;14.00;99.90
16666;DHT22;8446;50.998;6.250;2023-05-10T09:36:52;14.00;99.90
16666;DHT22;8446;50.998;6.250;2023-05-10T09:39:20;14.00;99.90
16666;DHT22;8446;50.998;6.250;2023-05-10T09:41:47;14.00;99.90
16666;DHT22;8446;50.998;6.250;2023-05-10T09:44:17;14.00;99.90
16666;DHT22;8446;50.998;6.250;2023-05-10T09:46:50;14.00;99.90
16666;DHT22;8446;50.998;6.250;2023-05-10T09:49:18;14.00;99.90
16666;DHT22;8446;50.998;6.250;2023-05-10T09:51:45;14.00;99.90
16666;DHT22;8446;50.998;6.250;2023-05-10T09:54:13;14.10;99.90
16666;DHT22;8446;50.998;6.250;2023-05-10T09:56:41;14.00;99.90
16666;DHT22;8446;50.998;6.250;2023-05-10T09:59:11;14.00;99.90
16666;DHT22;8446;50.998;6.250;2023-05-10T10:01:38;14.10;99.90
16666;DHT22;8446;50.998;6.250;2023-05-10T10:04:09;14.20;99.90
16666;DHT22;8446;50.998;6.250;2023-05-10T10:06:36;14.10;99.90
16666;DHT22;8446;50.998;6.250;2023-05-10T10:09:04;14.10;99.90
16666;DHT22;8446;50.998;6.250;2023-05-10T10:11:33;14.10;99.90
16666;DHT22;8446;50.998;6.250;2023-05-10T10:14:00;14.20;99.90
16666;DHT22;8446;50.998;6.250;2023-05-10T10:16:27;14.40;99.90
16666;DHT22;8446;50.998;6.250;2023-05-10T10:18:55;14.50;99.90
16666;DHT22;8446;50.998;6.250;2023-05-10T10:21:23;14.70;99.90
16666;DHT22;8446;50.998;6.250;2023-05-10T10:23:51;14.40;99.90
16666;DHT22;8446;50.998;6.250;2023-05-10T10:26:19;14.40;99.90
16666;DHT22;8446;50.998;6.250;2023-05-10T10:28:51;14.40;99.90
16666;DHT22;8446;50.998;6.250;2023-05-10T10:31:27;14.50;99.90
16666;DHT22;8446;50.998;6.250;2023-05-10T10:34:05;14.60;99.90
16666;DHT22;8446;50.998;6.250;2023-05-10T10:36:40;14.70;99.90
16666;DHT22;8446;50.998;6.250;2023-05-10T10:39:09;14.80;99.90
16666;DHT22;8446;50.998;6.250;2023-05-10T10:41:38;14.80;99.90
16666;DHT22;8446;50.998;6.250;2023-05-10T10:44:26;14.80;99.90
16666;DHT22;8446;50.998;6.250;2023-05-10T10:47:03;14.80;99.90
16666;DHT22;8446;50.998;6.250;2023-05-10T10:49:37;14.90;99.90
16666;DHT22;8446;50.998;6.250;2023-05-10T10:52:20;14.70;99.90
16666;DHT22;8446;50.998;6.250;2023-05-10T10:54:50;14.60;99.90
16666;DHT22;8446;50.998;6.250;2023-05-10T10:57:19;14.50;99.90
16666;DHT22;8446;50.998;6.250;2023-05-10T10:59:47;14.60;99.90
16666;DHT22;8446;50.998;6.250;2023-05-10T11:02:32;14.40;99.90
16666;DHT22;8446;50.998;6.250;2023-05-10T11:04:59;14.30;99.90
16666;DHT22;8446;50.998;6.250;2023-05-10T11:07:27;14.30;99.90
16666;DHT22;8446;50.998;6.250;2023-05-10T11:09:54;14.40;99.90
16666;DHT22;8446;50.998;6.250;2023-05-10T11:12:22;14.40;99.90
16666;DHT22;8446;50.998;6.250;2023-05-10T11:14:50;14.50;99.90
16666;DHT22;8446;50.998;6.250;2023-05-10T11:17:24;14.60;99.90
16666;DHT22;8446;50.998;6.250;2023-05-10T11:20:07;14.60;99.90
16666;DHT22;8446;50.998;6.250;2023-05-10T11:25:27;14.50;99.90
16666;DHT22;8446;50.998;6.250;2023-05-10T11:27:54;14.40;99.90
16666;DHT22;8446;50.998;6.250;2023-05-10T11:30:22;14.40;99.90
16666;DHT22;8446;50.998;6.250;2023-05-10T11:32:49;14.60;99.90
16666;DHT22;8446;50.998;6.250;2023-05-10T11:35:16;14.70;99.90
16666;DHT22;8446;50.998;6.250;2023-05-10T11:37:42;14.70;99.90
16666;DHT22;8446;50.998;6.250;2023-05-10T11:40:14;14.90;99.90
16666;DHT22;8446;50.998;6.250;2023-05-10T11:42:42;15.10;99.90
16666;DHT22;8446;50.998;6.250;2023-05-10T11:45:10;15.20;99.90
16666;DHT22;8446;50.998;6.250;2023-05-10T11:47:36;15.40;99.90
16666;DHT22;8446;50.998;6.250;2023-05-10T11:50:05;15.70;99.90
16666;DHT22;8446;50.998;6.250;2023-05-10T11:52:35;15.80;99.90
16666;DHT22;8446;50.998;6.250;2023-05-10T11:55:03;15.90;99.90
16666;DHT22;8446;50.998;6.250;2023-05-10T11:57:30;16.00;99.90
16666;DHT22;8446;50.998;6.250;2023-05-10T11:59:58;16.00;99.90
16666;DHT22;8446;50.998;6.250;2023-05-10T12:02:25;16.00;99.90
16666;DHT22;8446;50.998;6.250;2023-05-10T12:04:52;15.90;99.90
16666;DHT22;8446;50.998;6.250;2023-05-10T12:07:19;15.80;99.90
16666;DHT22;8446;50.998;6.250;2023-05-10T12:10:07;16.10;99.90
16666;DHT22;8446;50.998;6.250;2023-05-10T12:12:38;16.30;99.90
16666;DHT22;8446;50.998;6.250;2023-05-10T12:15:10;16.40;99.90
16666;DHT22;8446;50.998;6.250;2023-05-10T12:17:38;16.80;99.90
16666;DHT22;8446;50.998;6.250;2023-05-10T12:20:18;16.80;99.90
16666;DHT22;8446;50.998;6.250;2023-05-10T12:22:47;17.40;99.90
16666;DHT22;8446;50.998;6.250;2023-05-10T12:25:13;17.70;99.90
16666;DHT22;8446;50.998;6.250;2023-05-10T12:27:41;18.00;99.90
16666;DHT22;8446;50.998;6.250;2023-05-10T12:30:10;18.00;99.90
16666;DHT22;8446;50.998;6.250;2023-05-10T12:32:38;17.90;99.90
16666;DHT22;8446;50.998;6.250;2023-05-10T12:35:05;18.20;99.90
16666;DHT22;8446;50.998;6.250;2023-05-10T12:37:32;18.20;99.90
16666;DHT22;8446;50.998;6.250;2023-05-10T12:40:01;18.30;99.90
16666;DHT22;8446;50.998;6.250;2023-05-10T12:42:30;18.50;99.90
16666;DHT22;8446;50.998;6.250;2023-05-10T12:44:57;18.30;99.90
16666;DHT22;8446;50.998;6.250;2023-05-10T12:47:25;17.80;99.90
16666;DHT22;8446;50.998;6.250;2023-05-10T12:49:52;17.50;99.90
16666;DHT22;8446;50.998;6.250;2023-05-10T12:52:19;17.60;99.90
16666;DHT22;8446;50.998;6.250;2023-05-10T12:54:46;17.80;99.90
16666;DHT22;8446;50.998;6.250;2023-05-10T12:57:13;18.10;99.90
16666;DHT22;8446;50.998;6.250;2023-05-10T12:59:40;18.40;99.90
16666;DHT22;8446;50.998;6.250;2023-05-10T13:02:07;18.30;99.90
16666;DHT22;8446;50.998;6.250;2023-05-10T13:04:35;18.30;99.90
16666;DHT22;8446;50.998;6.250;2023-05-10T13:07:04;18.50;99.90
16666;DHT22;8446;50.998;6.250;2023-05-10T13:09:31;18.30;99.90
16666;DHT22;8446;50.998;6.250;2023-05-10T13:11:58;18.00;99.90
16666;DHT22;8446;50.998;6.250;2023-05-10T13:14:25;17.70;99.90
16666;DHT22;8446;50.998;6.250;2023-05-10T13:16:52;17.80;99.90
16666;DHT22;8446;50.998;6.250;2023-05-10T13:19:19;17.80;99.90
16666;DHT22;8446;50.998;6.250;2023-05-10T13:21:48;17.70;99.90
16666;DHT22;8446;50.998;6.250;2023-05-10T13:24:14;17.70;99.90
16666;DHT22;8446;50.998;6.250;2023-05-10T13:26:42;17.60;99.90
16666;DHT22;8446;50.998;6.250;2023-05-10T13:29:09;17.60;99.90
16666;DHT22;8446;50.998;6.250;2023-05-10T13:31:36;17.60;99.90
16666;DHT22;8446;50.998;6.250;2023-05-10T13:34:04;18.00;99.90
16666;DHT22;8446;50.998;6.250;2023-05-10T13:36:31;18.40;99.90
16666;DHT22;8446;50.998;6.250;2023-05-10T13:38:59;18.90;99.90
16666;DHT22;8446;50.998;6.250;2023-05-10T13:41:28;19.00;99.90
16666;DHT22;8446;50.998;6.250;2023-05-10T13:43:55;19.20;99.90
16666;DHT22;8446;50.998;6.250;2023-05-10T13:46:22;19.50;99.90
16666;DHT22;8446;50.998;6.250;2023-05-10T13:48:49;19.40;99.90
16666;DHT22;8446;50.998;6.250;2023-05-10T13:51:15;19.40;99.90
16666;DHT22;8446;50.998;6.250;2023-05-10T13:53:42;19.40;99.90
16666;DHT22;8446;50.998;6.250;2023-05-10T13:56:10;19.10;99.90
16666;DHT22;8446;50.998;6.250;2023-05-10T13:58:37;19.20;99.90
16666;DHT22;8446;50.998;6.250;2023-05-10T14:01:04;19.40;99.90
16666;DHT22;8446;50.998;6.250;2023-05-10T14:03:31;19.20;99.90
16666;DHT22;8446;50.998;6.250;2023-05-10T14:05:58;19.00;99.90
16666;DHT22;8446;50.998;6.250;2023-05-10T14:08:25;19.00;99.90
16666;DHT22;8446;50.998;6.250;2023-05-10T14:10:53;19.10;99.90
16666;DHT22;8446;50.998;6.250;2023-05-10T14:13:23;18.90;99.90
16666;DHT22;8446;50.998;6.250;2023-05-10T14:15:50;18.70;99.90
16666;DHT22;8446;50.998;6.250;2023-05-10T14:18:17;18.40;99.90
16666;DHT22;8446;50.998;6.250;2023-05-10T14:20:44;18.30;99.90
16666;DHT22;8446;50.998;6.250;2023-05-10T14:23:11;18.30;99.90
16666;DHT22;8446;50.998;6.250;2023-05-10T14:25:39;18.40;99.90
16666;DHT22;8446;50.998;6.250;2023-05-10T14:28:06;18.70;99.90
16666;DHT22;8446;50.998;6.250;2023-05-10T14:30:34;18.60;99.90
16666;DHT22;8446;50.998;6.250;2023-05-10T14:33:01;18.70;99.90
16666;DHT22;8446;50.998;6.250;2023-05-10T14:35:29;18.80;99.90
16666;DHT22;8446;50.998;6.250;2023-05-10T14:37:56;18.70;99.90
16666;DHT22;8446;50.998;6.250;2023-05-10T14:40:23;18.70;99.90
16666;DHT22;8446;50.998;6.250;2023-05-10T14:42:50;18.80;99.90
16666;DHT22;8446;50.998;6.250;2023-05-10T14:45:18;18.60;99.90
16666;DHT22;8446;50.998;6.250;2023-05-10T14:47:46;18.40;99.90
16666;DHT22;8446;50.998;6.250;2023-05-10T14:50:13;18.40;99.90
16666;DHT22;8446;50.998;6.250;2023-05-10T14:52:40;18.30;99.90
16666;DHT22;8446;50.998;6.250;2023-05-10T14:55:08;18.20;99.90
16666;DHT22;8446;50.998;6.250;2023-05-10T14:57:35;18.20;99.90
16666;DHT22;8446;50.998;6.250;2023-05-10T15:00:02;17.90;99.90
16666;DHT22;8446;50.998;6.250;2023-05-10T15:02:29;17.80;99.90
16666;DHT22;8446;50.998;6.250;2023-05-10T15:04:57;17.70;99.90
16666;DHT22;8446;50.998;6.250;2023-05-10T15:07:24;17.60;99.90
16666;DHT22;8446;50.998;6.250;2023-05-10T15:09:50;17.60;99.90
16666;DHT22;8446;50.998;6.250;2023-05-10T15:12:18;17.60;99.90
16666;DHT22;8446;50.998;6.250;2023-05-10T15:14:44;17.70;99.90
16666;DHT22;8446;50.998;6.250;2023-05-10T15:17:11;17.60;99.90
16666;DHT22;8446;50.998;6.250;2023-05-10T15:19:38;17.50;99.90
16666;DHT22;8446;50.998;6.250;2023-05-10T15:22:06;17.50;99.90
16666;DHT22;8446;50.998;6.250;2023-05-10T15:24:34;17.40;99.90
16666;DHT22;8446;50.998;6.250;2023-05-10T15:27:00;17.50;99.90
16666;DHT22;8446;50.998;6.250;2023-05-10T15:29:27;17.50;99.90
16666;DHT22;8446;50.998;6.250;2023-05-10T15:31:55;17.50;99.90
16666;DHT22;8446;50.998;6.250;2023-05-10T15:34:22;17.50;99.90
16666;DHT22;8446;50.998;6.250;2023-05-10T15:36:48;17.60;99.90
16666;DHT22;8446;50.998;6.250;2023-05-10T15:39:16;17.60;99.90
16666;DHT22;8446;50.998;6.250;2023-05-10T15:41:43;17.60;99.90
16666;DHT22;8446;50.998;6.250;2023-05-10T15:44:10;17.50;99.90
16666;DHT22;8446;50.998;6.250;2023-05-10T15:46:37;17.60;99.90
16666;DHT22;8446;50.998;6.250;2023-05-10T15:49:04;17.60;99.90
16666;DHT22;8446;50.998;6.250;2023-05-10T15:51:32;17.60;99.90
16666;DHT22;8446;50.998;6.250;2023-05-10T15:53:59;17.70;99.90
16666;DHT22;8446;50.998;6.250;2023-05-10T15:56:28;17.70;99.90